Time;durP1;ratioP1;P1;durP2;ratioP2;P2;SDS_P1;SDS_P2;PMS_P1;PMS_P2;Temp;Humidity;BMP_temperature;BMP_pressure;BME280_temperature;BME280_humidity;BME280_pressure;Samples;Min_cycle;Max_cycle;Signal;HPM_P1;HPM_P2
2021/07/15 00:01:33;;;;;;;27.75;24.85;;;;;;;21.91;72.24;100130.50;5063993;28;20377;-65
2021/07/15 00:03:59;;;;;;;28.33;25.42;;;;;;;21.95;72.40;100140.88;5063908;28;20021;-66
2021/07/15 00:06:24;;;;;;;27.95;24.33;;;;;;;21.95;72.54;100140.88;5063655;28;20028;-66
2021/07/15 00:08:56;;;;;;;28.13;25.15;;;;;;;21.93;72.52;100148.91;5063702;28;20032;-65
2021/07/15 00:11:27;;;;;;;29.70;23.92;;;;;;;21.95;72.23;100140.88;5063501;28;20343;-67
2021/07/15 00:13:55;;;;;;;27.70;23.98;;;;;;;21.94;72.68;100155.88;5063744;28;20094;-67
2021/07/15 00:16:23;;;;;;;26.73;23.45;;;;;;;21.94;72.44;100145.31;5063623;28;20495;-66
2021/07/15 00:18:49;;;;;;;26.58;22.73;;;;;;;21.98;72.31;100153.91;5062999;28;20025;-66
2021/07/15 00:21:17;;;;;;;26.15;23.30;;;;;;;22.02;72.58;100152.78;5063454;28;20021;-66
2021/07/15 00:23:44;;;;;;;28.27;24.95;;;;;;;22.02;72.33;100155.41;5063528;28;20021;-67
2021/07/15 00:26:10;;;;;;;27.27;24.27;;;;;;;21.99;72.42;100160.88;5063435;28;20047;-67
2021/07/15 00:28:40;;;;;;;28.17;25.35;;;;;;;21.95;72.58;100162.03;5063637;28;20028;-67
2021/07/15 00:31:07;;;;;;;27.80;24.88;;;;;;;21.94;72.91;100166.47;5063337;28;20024;-67
2021/07/15 00:33:33;;;;;;;29.50;26.50;;;;;;;21.89;72.76;100163.22;5063247;28;20021;-67
2021/07/15 00:35:58;;;;;;;29.92;26.08;;;;;;;21.85;72.71;100162.59;5062971;28;20025;-66
2021/07/15 00:38:24;;;;;;;28.40;25.52;;;;;;;21.85;72.80;100167.88;5063260;28;20031;-67
2021/07/15 00:40:50;;;;;;;34.10;26.02;;;;;;;21.87;72.63;100167.78;5063248;28;20035;-67
2021/07/15 00:43:16;;;;;;;35.35;26.42;;;;;;;21.84;73.04;100168.78;5063448;28;20106;-66
2021/07/15 00:45:42;;;;;;;33.92;26.60;;;;;;;21.84;72.67;100163.50;5063126;28;20021;-67
2021/07/15 00:48:07;;;;;;;31.30;27.80;;;;;;;21.81;72.99;100171.63;5063294;28;20017;-67
2021/07/15 00:50:33;;;;;;;30.08;26.92;;;;;;;21.75;73.09;100156.09;5063039;28;20036;-67
2021/07/15 00:53:01;;;;;;;32.67;27.90;;;;;;;21.74;73.15;100165.81;5063194;28;20045;-67
2021/07/15 00:55:32;;;;;;;30.30;26.73;;;;;;;21.73;73.24;100177.34;5063246;28;20020;-67
2021/07/15 00:57:59;;;;;;;32.47;27.45;;;;;;;21.68;73.14;100168.81;5063036;28;20017;-67
2021/07/15 01:00:25;;;;;;;32.15;27.48;;;;;;;;;;5063173;28;20533;-67
2021/07/15 01:02:53;;;;;;;32.47;28.83;;;;;;;21.65;73.49;100177.78;5063078;28;20032;-67
2021/07/15 01:05:22;;;;;;;35.78;28.27;;;;;;;21.61;73.67;100172.78;5061697;28;20029;-67
2021/07/15 01:07:47;;;;;;;31.35;27.95;;;;;;;21.54;74.00;100174.94;5063270;28;20013;-67
2021/07/15 01:10:16;;;;;;;35.92;31.55;;;;;;;21.46;74.23;100185.94;5062793;28;20087;-67
2021/07/15 01:13:09;;;;;;;35.03;30.27;;;;;;;21.42;74.14;100184.44;5063104;28;20060;-66
2021/07/15 01:16:14;;;;;;;39.70;31.58;;;;;;;21.37;74.13;100181.19;5063414;28;20036;-66
2021/07/15 01:18:58;;;;;;;34.55;30.83;;;;;;;21.30;74.29;100189.47;5061489;28;20033;-67
2021/07/15 01:21:32;;;;;;;35.72;30.75;;;;;;;21.29;74.46;100187.75;5062756;28;20397;-68
2021/07/15 01:24:17;;;;;;;34.83;31.25;;;;;;;21.32;74.50;100183.25;5063016;28;20443;-67
2021/07/15 01:27:01;;;;;;;33.65;30.05;;;;;;;21.31;74.72;100190.31;5062893;28;20025;-67
2021/07/15 01:29:38;;;;;;;34.92;29.60;;;;;;;21.33;74.47;100182.28;5062717;28;20028;-68
2021/07/15 01:32:06;;;;;;;35.10;30.88;;;;;;;21.32;74.54;100186.75;5065067;28;20041;-67
2021/07/15 01:34:34;;;;;;;35.38;29.80;;;;;;;21.33;74.54;100180.50;5066479;28;20531;-67
2021/07/15 01:37:00;;;;;;;35.28;31.48;;;;;;;21.33;74.53;100180.50;5066517;28;20029;-67
2021/07/15 01:39:33;;;;;;;33.05;29.45;;;;;;;21.33;74.26;100182.28;5065182;28;20020;-66
2021/07/15 01:42:04;;;;;;;32.67;29.27;;;;;;;21.32;74.54;100185.88;5066587;28;20028;-67
2021/07/15 01:44:30;;;;;;;32.95;28.75;;;;;;;21.33;74.40;100187.56;5066434;28;20029;-67
2021/07/15 01:46:56;;;;;;;31.90;27.70;;;;;;;21.37;74.69;100181.19;5066380;28;20078;-67
2021/07/15 01:49:24;;;;;;;33.80;29.40;;;;;;;21.44;74.50;100185.16;5066344;28;20024;-67
2021/07/15 01:51:52;;;;;;;35.88;31.48;;;;;;;21.47;74.50;100181.53;5066284;28;20270;-67
2021/07/15 01:54:18;;;;;;;33.33;29.80;;;;;;;21.51;74.32;100183.88;5066033;28;20047;-67
2021/07/15 01:56:44;;;;;;;33.35;29.08;;;;;;;21.52;74.24;100182.94;5065972;28;20021;-68
2021/07/15 01:59:13;;;;;;;33.67;29.25;;;;;;;21.50;74.31;100192.72;5066351;28;20036;-67
2021/07/15 02:01:39;;;;;;;34.65;29.20;;;;;;;21.48;74.32;100192.00;5066021;28;20286;-67
2021/07/15 02:04:06;;;;;;;32.47;29.02;;;;;;;21.42;74.36;100181.78;5066246;28;20033;-67
2021/07/15 02:06:33;;;;;;;33.22;29.83;;;;;;;21.39;74.00;100185.44;5065978;28;20045;-67
2021/07/15 02:09:00;;;;;;;35.33;30.63;;;;;;;21.34;74.52;100178.72;5065957;28;20426;-67
2021/07/15 02:11:33;;;;;;;33.63;30.02;;;;;;;21.28;74.30;100172.84;5065859;28;20059;-67
2021/07/15 02:14:02;;;;;;;35.47;30.80;;;;;;;21.24;74.45;100168.72;5065712;28;20054;-67
2021/07/15 02:16:27;;;;;;;34.58;30.98;;;;;;;21.20;74.75;100175.09;5065756;28;20021;-67
2021/07/15 02:18:54;;;;;;;32.28;28.90;;;;;;;21.15;74.60;100174.50;5065678;28;20027;-67
2021/07/15 02:21:20;;;;;;;35.25;31.60;;;;;;;21.09;74.71;100164.28;5065902;28;20096;-67
2021/07/15 02:23:46;;;;;;;35.78;30.95;;;;;;;21.02;74.73;100161.16;5065484;28;20025;-67
2021/07/15 02:26:12;;;;;;;35.17;31.15;;;;;;;20.96;75.11;100162.34;5065696;28;20450;-67
2021/07/15 02:28:38;;;;;;;42.08;33.92;;;;;;;20.92;75.31;100150.25;5065428;28;20525;-67
2021/07/15 02:31:13;;;;;;;39.13;33.15;;;;;;;20.86;75.33;100140.03;5065272;28;20048;-66
2021/07/15 02:33:44;;;;;;;41.13;34.05;;;;;;;20.85;75.50;100141.81;5065587;28;20081;-67
2021/07/15 02:36:10;;;;;;;39.85;34.10;;;;;;;20.81;75.80;100135.84;5065683;28;20020;-66
2021/07/15 02:38:37;;;;;;;38.65;33.05;;;;;;;20.78;75.91;100128.09;5064219;28;20048;-67
2021/07/15 02:41:02;;;;;;;37.75;32.58;;;;;;;20.80;76.17;100135.94;5064686;28;20174;-66
2021/07/15 02:43:28;;;;;;;41.20;34.30;;;;;;;20.78;75.98;100130.75;5065320;28;20051;-66
2021/07/15 02:45:54;;;;;;;37.38;33.38;;;;;;;20.74;76.48;100125.72;5065065;28;20082;-66
2021/07/15 02:48:20;;;;;;;38.50;33.15;;;;;;;20.75;76.47;100130.91;5065383;28;20044;-67
2021/07/15 02:50:46;;;;;;;38.05;33.13;;;;;;;20.71;76.76;100134.66;5065062;28;20035;-66
2021/07/15 02:53:13;;;;;;;39.85;34.00;;;;;;;20.66;76.84;100131.44;5064784;28;20045;-66
2021/07/15 02:55:45;;;;;;;36.70;32.70;;;;;;;20.64;76.74;100133.31;5065107;28;20068;-66
2021/07/15 02:58:10;;;;;;;;;;;;;;;20.65;76.19;100135.00;5065268;28;20052;-66
2021/07/15 03:00:44;;;;;;;41.03;33.97;;;;;;;20.61;76.61;100128.19;5064776;28;19912;-66
2021/07/15 03:03:21;;;;;;;37.58;33.15;;;;;;;20.66;76.60;100134.06;5063812;28;20274;-66
2021/07/15 03:05:59;;;;;;;39.13;34.08;;;;;;;20.66;76.94;100129.66;5064743;28;20021;-67
2021/07/15 03:08:29;;;;;;;37.05;32.50;;;;;;;20.64;77.04;100122.78;5064761;28;20492;-66
2021/07/15 03:10:58;;;;;;;36.33;32.30;;;;;;;20.70;77.43;100127.69;5064555;28;20028;-67
2021/07/15 03:13:25;;;;;;;36.05;31.77;;;;;;;20.74;77.28;100134.50;5064575;28;20047;-67
2021/07/15 03:15:51;;;;;;;37.35;33.33;;;;;;;20.79;77.71;100128.97;5064787;28;20032;-66
2021/07/15 03:18:18;;;;;;;40.00;30.48;;;;;;;20.85;77.41;100125.13;5064555;28;20060;-67
2021/07/15 03:20:44;;;;;;;37.03;29.23;;;;;;;20.95;77.70;100128.13;5063189;28;20028;-67
2021/07/15 03:23:13;;;;;;;32.30;28.77;;;;;;;21.11;77.55;100134.25;5064474;28;20042;-66
2021/07/15 03:25:43;;;;;;;32.22;27.92;;;;;;;21.29;77.67;100136.75;5064326;28;20032;-66
2021/07/15 03:28:12;;;;;;;33.67;28.08;;;;;;;21.51;77.28;100136.34;5064256;28;20023;-67
2021/07/15 03:30:37;;;;;;;31.48;25.58;;;;;;;21.72;76.93;100138.66;5064077;28;20024;-67
2021/07/15 03:33:04;;;;;;;30.70;27.48;;;;;;;21.91;76.57;100132.28;5064442;28;20017;-66
2021/07/15 03:35:30;;;;;;;29.92;26.80;;;;;;;22.09;75.90;100137.41;5064241;28;20080;-67
2021/07/15 03:37:56;;;;;;;28.52;25.58;;;;;;;22.27;75.47;100130.97;5062923;28;20031;-66
2021/07/15 03:40:24;;;;;;;28.13;25.33;;;;;;;22.58;75.00;100140.56;5064126;28;20035;-66
2021/07/15 03:42:50;;;;;;;25.55;22.85;;;;;;;22.88;74.05;100139.56;5064247;28;20036;-67
2021/07/15 03:45:18;;;;;;;25.90;23.17;;;;;;;23.21;73.22;100143.59;5064016;28;20025;-66
2021/07/15 03:47:48;;;;;;;29.92;26.85;;;;;;;23.54;72.54;100145.91;5063972;28;20048;-67
2021/07/15 03:50:15;;;;;;;27.08;24.20;;;;;;;23.84;71.38;100153.59;5063907;28;20107;-66
2021/07/15 03:52:45;;;;;;;24.90;22.35;;;;;;;24.15;70.23;100145.34;5063143;28;20024;-66
2021/07/15 03:55:11;;;;;;;26.92;24.13;;;;;;;24.49;68.96;100147.38;5063940;28;20068;-67
2021/07/15 03:57:37;;;;;;;28.00;25.02;;;;;;;24.68;67.28;100146.91;5063872;28;20036;-67
2021/07/15 04:00:05;;;;;;;27.75;25.05;;;;;;;24.69;66.31;100159.22;5063809;28;20049;-67
2021/07/15 04:02:30;;;;;;;26.00;23.30;;;;;;;24.75;66.05;100161.44;5063823;28;20029;-67
2021/07/15 04:05:01;;;;;;;25.73;23.13;;;;;;;25.00;65.75;100162.31;5063824;28;20050;-67
2021/07/15 04:07:30;;;;;;;25.05;22.33;;;;;;;25.39;65.17;100158.63;5063858;28;20025;-67
2021/07/15 04:09:58;;;;;;;24.80;22.25;;;;;;;25.73;63.62;100161.41;5063582;28;20024;-68
2021/07/15 04:12:24;;;;;;;26.95;23.38;;;;;;;25.95;62.02;100164.19;5063636;28;20020;-67
2021/07/15 04:14:58;;;;;;;26.60;24.00;;;;;;;26.19;61.76;100158.78;5063368;28;20024;-67
2021/07/15 04:17:27;;;;;;;23.83;21.42;;;;;;;26.50;61.07;100154.66;5063500;28;20052;-67
2021/07/15 04:19:59;;;;;;;23.48;20.80;;;;;;;27.00;60.03;100164.00;5063580;28;20029;-67
2021/07/15 04:22:26;;;;;;;24.00;21.58;;;;;;;27.39;58.54;100176.81;5076102;28;20020;-67
2021/07/15 04:24:52;;;;;;;24.83;22.40;;;;;;;27.64;57.02;100162.25;5082242;28;20028;-67
2021/07/15 04:27:18;;;;;;;24.20;21.90;;;;;;;27.86;56.23;100152.44;5083514;28;20063;-67
2021/07/15 04:29:45;;;;;;;23.58;21.20;;;;;;;27.94;55.81;100155.28;5083230;28;20028;-67
2021/07/15 04:32:26;;;;;;;21.50;19.52;;;;;;;28.31;55.57;100155.72;5083549;28;20030;-67
2021/07/15 04:34:54;;;;;;;21.48;18.95;;;;;;;28.74;54.48;100168.94;5083600;28;20024;-66
2021/07/15 04:37:20;;;;;;;21.88;19.88;;;;;;;29.19;53.00;100162.25;5083321;28;20088;-69
2021/07/15 04:39:46;;;;;;;20.88;18.88;;;;;;;29.58;52.08;100164.06;5083414;28;20029;-68
2021/07/15 04:42:14;;;;;;;21.33;19.27;;;;;;;29.80;51.32;100160.22;5083387;28;20137;-68
2021/07/15 04:44:41;;;;;;;20.75;18.63;;;;;;;30.07;49.88;100163.06;5083300;28;20396;-67
2021/07/15 04:47:08;;;;;;;20.17;18.05;;;;;;;30.31;49.28;100161.72;5083235;28;20171;-67
2021/07/15 04:49:34;;;;;;;20.45;18.45;;;;;;;30.64;48.60;100162.09;5082919;28;20020;-68
2021/07/15 04:52:02;;;;;;;20.75;18.58;;;;;;;30.97;47.24;100166.13;5083121;28;20039;-67
2021/07/15 04:54:28;;;;;;;21.58;19.35;;;;;;;30.94;46.68;100153.91;5082997;28;20044;-69
2021/07/15 04:56:54;;;;;;;21.10;19.10;;;;;;;30.64;46.60;100154.06;5083336;28;20438;-68
2021/07/15 04:59:20;;;;;;;20.33;18.52;;;;;;;30.57;46.76;100155.66;5083124;28;20024;-68
2021/07/15 05:01:46;;;;;;;20.75;18.77;;;;;;;30.69;46.58;100167.00;5081698;28;20027;-68
2021/07/15 05:04:11;;;;;;;18.23;16.52;;;;;;;30.75;46.66;100161.03;5083996;28;20026;-68
2021/07/15 05:06:37;;;;;;;19.27;16.55;;;;;;;31.05;46.65;100160.88;5087206;28;20031;-65
2021/07/15 05:09:04;;;;;;;19.20;17.27;;;;;;;31.37;46.02;100153.25;5087099;28;20028;-69
2021/07/15 05:11:31;;;;;;;18.40;16.75;;;;;;;31.88;44.86;100166.84;5087055;28;20017;-69
2021/07/15 05:14:01;;;;;;;18.88;17.20;;;;;;;32.24;44.06;100167.69;5085662;28;20085;-68
2021/07/15 05:16:29;;;;;;;19.48;17.67;;;;;;;32.46;43.37;100171.63;5087087;28;20480;-68
2021/07/15 05:18:55;;;;;;;20.17;18.17;;;;;;;32.56;42.08;100168.84;5086758;28;20116;-68
2021/07/15 05:21:20;;;;;;;18.80;16.95;;;;;;;32.49;42.60;100173.19;5085398;28;20111;-68
2021/07/15 05:23:45;;;;;;;19.17;17.48;;;;;;;32.75;42.07;100167.72;5085173;28;20032;-68
2021/07/15 05:26:11;;;;;;;19.13;17.33;;;;;;;32.61;41.32;100166.53;5086569;28;20021;-69
2021/07/15 05:28:37;;;;;;;25.15;16.67;;;;;;;32.13;41.43;100183.09;5086650;28;20021;-69
2021/07/15 05:31:02;;;;;;;20.23;18.30;;;;;;;31.75;42.39;100182.53;5086787;28;20024;-68
2021/07/15 05:33:27;;;;;;;20.27;18.42;;;;;;;31.32;42.87;100183.22;5086774;28;20028;-69
2021/07/15 05:35:53;;;;;;;20.83;18.73;;;;;;;30.96;43.78;100178.69;5086616;28;20449;-70
2021/07/15 05:38:18;;;;;;;21.13;19.02;;;;;;;30.77;44.28;100176.97;5086404;28;20477;-69
2021/07/15 05:40:44;;;;;;;21.27;19.02;;;;;;;30.50;44.52;100167.97;5086513;28;20154;-69
2021/07/15 05:43:09;;;;;;;22.98;20.50;;;;;;;30.41;44.93;100169.72;5086591;28;20029;-69
2021/07/15 05:45:34;;;;;;;19.70;17.73;;;;;;;30.06;45.38;100167.56;5086638;28;20036;-68
2021/07/15 05:48:00;;;;;;;20.60;18.58;;;;;;;29.90;46.06;100167.38;5086256;28;20070;-69
2021/07/15 05:50:25;;;;;;;19.60;17.90;;;;;;;29.84;46.77;100182.19;5086234;28;20021;-69
2021/07/15 05:52:51;;;;;;;18.75;16.92;;;;;;;29.77;47.09;100181.06;5084744;28;20096;-68
2021/07/15 05:55:16;;;;;;;20.13;18.05;;;;;;;30.05;46.63;100173.06;5086269;28;20032;-69
2021/07/15 05:57:41;;;;;;;17.92;16.25;;;;;;;30.32;46.24;100171.47;5086107;28;20031;-69
2021/07/15 06:00:09;;;;;;;18.35;16.33;;;;;;;30.81;46.17;100178.38;5085965;28;20016;-68
2021/07/15 06:02:34;;;;;;;17.15;15.23;;;;;;;31.45;45.10;100182.00;5086173;28;20021;-69
2021/07/15 06:05:00;;;;;;;16.70;15.00;;;;;;;32.13;43.48;100167.00;5085932;28;20082;-69
2021/07/15 06:07:26;;;;;;;17.83;16.13;;;;;;;32.74;42.24;100175.94;5086139;28;20025;-69
2021/07/15 06:09:53;;;;;;;19.65;17.75;;;;;;;33.18;40.52;100182.09;5085905;28;20020;-69
2021/07/15 06:12:18;;;;;;;17.48;15.85;;;;;;;32.95;40.38;100175.47;5086019;28;20029;-70
2021/07/15 06:14:44;;;;;;;19.15;17.08;;;;;;;32.84;40.51;100168.59;5086031;28;20031;-69
2021/07/15 06:17:09;;;;;;;20.08;18.20;;;;;;;32.77;40.13;100176.47;5085091;28;20477;-69
2021/07/15 06:19:35;;;;;;;18.98;17.17;;;;;;;32.58;40.55;100172.22;5085834;28;20042;-69
2021/07/15 06:22:00;;;;;;;19.55;17.85;;;;;;;32.46;41.18;100173.50;5085580;28;20032;-70
2021/07/15 06:24:26;;;;;;;19.35;17.48;;;;;;;32.43;41.07;100184.56;5085726;28;20036;-67
2021/07/15 06:26:51;;;;;;;20.15;18.10;;;;;;;32.17;41.34;100188.16;5085576;28;20039;-70
2021/07/15 06:29:17;;;;;;;18.38;16.65;;;;;;;32.35;42.09;100196.94;5084640;28;20024;-70
2021/07/15 06:31:42;;;;;;;18.27;16.67;;;;;;;32.81;41.40;100198.47;5085860;28;20025;-68
2021/07/15 06:34:08;;;;;;;19.30;17.23;;;;;;;33.29;39.96;100194.34;5085532;28;20021;-69
2021/07/15 06:36:34;;;;;;;18.33;16.55;;;;;;;33.33;39.03;100204.59;5085543;28;20088;-69
2021/07/15 06:39:00;;;;;;;19.88;17.95;;;;;;;33.33;38.96;100206.44;5085509;28;20032;-68
2021/07/15 06:41:26;;;;;;;19.95;17.13;;;;;;;33.20;39.18;100212.31;5083819;28;20027;-68
2021/07/15 06:43:51;;;;;;;18.73;17.13;;;;;;;32.86;39.83;100201.50;5085223;28;20103;-68
2021/07/15 06:46:17;;;;;;;18.17;16.58;;;;;;;33.13;39.35;100206.78;5085230;28;20033;-68
2021/07/15 06:48:43;;;;;;;16.90;15.27;;;;;;;33.34;39.17;100218.91;5085414;28;20048;-68
2021/07/15 06:51:08;;;;;;;17.90;16.10;;;;;;;33.57;37.96;100212.81;5085245;28;20016;-68
2021/07/15 06:53:34;;;;;;;19.15;16.35;;;;;;;33.50;38.01;100208.13;5084917;28;20102;-69
2021/07/15 06:56:00;;;;;;;17.17;15.52;;;;;;;33.51;37.75;100208.97;5085215;28;20484;-68
2021/07/15 06:58:26;;;;;;;16.75;15.32;;;;;;;33.58;37.70;100214.53;5084798;28;20122;-68
2021/07/15 07:00:55;;;;;;;18.50;15.35;;;;;;;33.67;37.98;100221.59;5083370;28;20020;-69
2021/07/15 07:03:20;;;;;;;15.75;14.38;;;;;;;33.90;37.47;100220.06;5085123;28;20054;-69
2021/07/15 07:05:49;;;;;;;15.40;14.00;;;;;;;34.28;35.53;100217.63;5083216;28;20028;-69
2021/07/15 07:08:15;;;;;;;14.38;12.90;;;;;;;33.87;35.50;100226.59;5084797;28;20107;-69
2021/07/15 07:10:40;;;;;;;14.25;12.75;;;;;;;33.54;36.76;100224.78;5084813;28;20028;-69
2021/07/15 07:13:06;;;;;;;17.90;12.88;;;;;;;33.94;35.98;100226.75;5084822;28;20066;-69
2021/07/15 07:15:31;;;;;;;14.23;12.73;;;;;;;34.14;35.07;100224.50;5084818;28;20020;-69
2021/07/15 07:17:56;;;;;;;17.13;12.80;;;;;;;34.42;35.04;100239.44;5084623;28;20020;-68
2021/07/15 07:20:22;;;;;;;16.25;14.75;;;;;;;34.86;34.13;100233.50;5084353;28;20054;-69
2021/07/15 07:22:49;;;;;;;15.52;14.13;;;;;;;34.82;33.77;100231.34;5084429;28;20028;-69
2021/07/15 07:25:14;;;;;;;14.40;13.05;;;;;;;34.95;34.44;100214.59;5084395;28;20028;-69
2021/07/15 07:27:40;;;;;;;14.10;12.80;;;;;;;35.35;34.69;100218.00;5083225;28;20046;-69
2021/07/15 07:30:08;;;;;;;14.18;12.88;;;;;;;36.01;33.96;100229.22;5084173;28;20024;-68
2021/07/15 07:32:34;;;;;;;15.13;13.65;;;;;;;36.41;31.72;100220.81;5083962;28;20050;-68
2021/07/15 07:34:59;;;;;;;15.98;12.75;;;;;;;36.40;31.13;100221.00;5084018;28;20064;-68
2021/07/15 07:37:25;;;;;;;12.98;11.80;;;;;;;36.52;31.17;100218.69;5084155;28;20029;-68
2021/07/15 07:39:54;;;;;;;13.50;12.02;;;;;;;36.75;31.25;100215.84;5084118;28;20025;-68
2021/07/15 07:42:19;;;;;;;13.77;12.40;;;;;;;37.01;30.60;100211.75;5083914;28;20084;-68
2021/07/15 07:44:45;;;;;;;13.02;11.73;;;;;;;37.33;30.71;100201.41;5084087;28;20235;-68
2021/07/15 07:47:10;;;;;;;12.73;11.15;;;;;;;37.71;29.69;100198.59;5084016;28;20020;-69
2021/07/15 07:49:35;;;;;;;11.95;10.77;;;;;;;37.88;28.42;100199.94;5084033;28;20117;-69
2021/07/15 07:52:02;;;;;;;13.38;10.85;;;;;;;37.69;27.95;100210.44;5083832;28;20055;-69
2021/07/15 07:54:27;;;;;;;11.25;10.32;;;;;;;37.64;29.29;100210.19;5083687;28;20049;-68
2021/07/15 07:56:53;;;;;;;10.07;9.07;;;;;;;37.58;27.40;100210.97;5084008;28;20112;-68
2021/07/15 07:59:18;;;;;;;10.13;9.13;;;;;;;37.27;26.82;100213.03;5083918;28;20492;-68
2021/07/15 08:01:43;;;;;;;9.48;8.52;;;;;;;36.41;27.46;100225.41;5083929;28;20024;-68
2021/07/15 08:04:09;;;;;;;8.98;8.18;;;;;;;36.07;27.92;100223.06;5082336;28;20111;-70
2021/07/15 08:06:36;;;;;;;9.27;8.48;;;;;;;35.61;28.29;100210.50;5082467;28;20063;-69
2021/07/15 08:09:21;;;;;;;12.90;11.60;;;;;;;35.38;30.37;100206.03;5083908;28;20054;-68
2021/07/15 08:11:49;;;;;;;13.90;9.63;;;;;;;35.73;31.14;100205.56;5083795;28;20292;-68
2021/07/15 08:14:15;;;;;;;9.55;8.07;;;;;;;36.13;29.00;100215.25;5083636;28;20020;-68
2021/07/15 08:16:40;;;;;;;9.40;8.35;;;;;;;36.56;28.90;100220.81;5083505;28;20025;-68
2021/07/15 08:19:06;;;;;;;10.07;9.18;;;;;;;37.19;28.68;100223.97;5083572;28;20020;-68
2021/07/15 08:21:31;;;;;;;12.15;11.05;;;;;;;37.56;28.40;100221.16;5083610;28;20021;-69
2021/07/15 08:23:57;;;;;;;11.18;10.05;;;;;;;37.96;28.77;100227.94;5083818;28;20465;-69
2021/07/15 08:26:22;;;;;;;11.07;9.98;;;;;;;38.52;27.46;100226.94;5083571;28;20534;-69
2021/07/15 08:28:48;;;;;;;12.35;10.02;;;;;;;38.87;26.74;100227.91;5083763;28;20047;-70
2021/07/15 08:31:14;;;;;;;9.57;8.73;;;;;;;39.23;26.21;100221.31;5083234;28;20020;-69
2021/07/15 08:33:39;;;;;;;9.95;8.30;;;;;;;39.44;25.47;100227.56;5083588;28;20025;-67
2021/07/15 08:36:05;;;;;;;9.93;9.10;;;;;;;39.53;25.58;100229.00;5083583;28;20044;-68
2021/07/15 08:38:30;;;;;;;9.25;8.45;;;;;;;39.69;24.78;100224.22;5083011;28;20025;-68
2021/07/15 08:40:56;;;;;;;9.73;8.90;;;;;;;39.85;24.80;100232.94;5082745;28;20066;-68
2021/07/15 08:43:22;;;;;;;8.65;7.72;;;;;;;39.79;24.04;100231.94;5083441;28;20016;-68
2021/07/15 08:45:49;;;;;;;9.60;8.70;;;;;;;39.83;23.92;100230.44;5083378;28;20025;-69
2021/07/15 08:48:15;;;;;;;9.43;8.52;;;;;;;40.01;24.46;100228.94;5083188;28;20020;-68
2021/07/15 08:50:41;;;;;;;8.93;8.02;;;;;;;40.25;24.01;100226.59;5083042;28;20035;-68
2021/07/15 08:53:07;;;;;;;7.88;7.18;;;;;;;40.35;23.44;100220.69;5083017;28;20045;-68
2021/07/15 08:58:19;;;;;;;8.15;7.55;;;;;;;40.82;23.20;100222.34;5083222;28;20034;-68
2021/07/15 09:00:46;;;;;;;9.18;7.47;;;;;;;40.70;22.71;100223.06;5083058;28;20039;-68
2021/07/15 09:03:11;;;;;;;7.40;6.80;;;;;;;40.04;22.54;100220.34;5083115;28;20028;-68
2021/07/15 09:05:42;;;;;;;8.10;7.03;;;;;;;39.55;24.02;100212.50;5082921;28;20071;-67
2021/07/15 09:08:07;;;;;;;6.78;6.28;;;;;;;39.72;23.76;100212.06;5083093;28;20054;-68
2021/07/15 09:10:33;;;;;;;7.95;7.25;;;;;;;39.83;24.12;100216.03;5082762;28;20020;-68
2021/07/15 09:12:59;;;;;;;8.35;7.22;;;;;;;39.84;24.09;100215.84;5083043;28;20039;-68
2021/07/15 09:15:25;;;;;;;7.82;7.00;;;;;;;39.99;23.68;100218.28;5082759;28;20103;-68
2021/07/15 09:17:51;;;;;;;8.50;7.68;;;;;;;39.35;23.24;100217.97;5082821;28;20036;-68
2021/07/15 09:20:18;;;;;;;8.05;7.35;;;;;;;38.47;24.84;100212.34;5082680;28;20025;-68
2021/07/15 09:22:59;;;;;;;8.95;8.15;;;;;;;37.66;25.82;100228.94;5083124;28;20048;-68
2021/07/15 09:25:27;;;;;;;8.25;7.45;;;;;;;37.32;26.48;100218.69;5082915;28;20017;-68
2021/07/15 09:27:52;;;;;;;10.75;8.60;;;;;;;37.31;27.05;100222.44;5082879;28;20024;-67
2021/07/15 09:30:19;;;;;;;9.13;8.27;;;;;;;37.55;27.48;100217.63;5082621;28;20515;-68
2021/07/15 09:32:53;;;;;;;8.85;8.13;;;;;;;38.15;27.09;100221.75;5082701;28;20051;-68
2021/07/15 09:35:29;;;;;;;9.50;8.60;;;;;;;38.66;26.26;100227.84;5082861;28;20319;-68
2021/07/15 09:37:55;;;;;;;8.85;8.20;;;;;;;39.15;26.41;100225.06;5082801;28;20534;-68
2021/07/15 09:40:41;;;;;;;9.43;8.63;;;;;;;39.58;25.62;100228.38;5082629;28;20574;-68
2021/07/15 09:43:24;;;;;;;9.02;7.38;;;;;;;39.74;25.19;100229.00;5082915;28;20232;-69
2021/07/15 09:45:53;;;;;;;10.85;8.52;;;;;;;39.94;25.15;100228.94;5082906;28;20112;-68
2021/07/15 09:48:21;;;;;;;8.23;7.43;;;;;;;40.01;25.52;100227.06;5082685;28;20081;-69
2021/07/15 09:50:48;;;;;;;10.95;8.45;;;;;;;40.27;25.22;100230.78;5082649;28;20040;-68
2021/07/15 09:53:20;;;;;;;8.68;7.88;;;;;;;40.44;24.94;100224.81;5086220;28;20048;-68
2021/07/15 09:55:46;;;;;;;8.25;7.45;;;;;;;40.35;25.06;100226.97;5086344;28;20032;-68
2021/07/15 09:58:12;;;;;;;8.27;7.53;;;;;;;40.32;25.35;100237.44;5086307;28;20028;-66
2021/07/15 10:00:42;;;;;;;8.70;7.90;;;;;;;40.50;24.76;100237.59;5085872;28;20536;-68
2021/07/15 10:03:11;;;;;;;9.00;8.20;;;;;;;40.64;25.14;100237.53;5086305;28;20024;-68
2021/07/15 10:05:38;;;;;;;8.05;7.35;;;;;;;40.71;24.39;100235.59;5086074;28;20012;-68
2021/07/15 10:08:09;;;;;;;8.60;7.80;;;;;;;40.58;24.52;100236.50;5086085;28;20031;-68
2021/07/15 10:10:35;;;;;;;8.20;7.50;;;;;;;40.45;24.76;100234.63;5085963;28;20427;-68
2021/07/15 10:13:31;;;;;;;9.07;8.07;;;;;;;40.54;24.32;100245.31;5085874;28;20020;-68
2021/07/15 10:16:05;;;;;;;8.02;7.32;;;;;;;40.43;24.47;100241.34;5077016;28;20040;-68
2021/07/15 10:18:37;;;;;;;9.27;7.55;;;;;;;40.52;24.24;100238.22;5085814;28;20152;-68
2021/07/15 10:21:04;;;;;;;8.23;7.10;;;;;;;40.45;24.38;100239.25;5086030;28;20025;-68
2021/07/15 10:23:35;;;;;;;8.10;7.40;;;;;;;40.51;23.97;100235.72;5086098;28;20044;-67
2021/07/15 10:26:02;;;;;;;8.70;7.50;;;;;;;40.43;24.62;100234.03;5085621;28;20084;-67
2021/07/15 10:28:28;;;;;;;9.00;8.10;;;;;;;40.35;24.12;100234.28;5085806;28;20099;-68
2021/07/15 10:31:00;;;;;;;8.88;8.07;;;;;;;40.08;24.44;100239.81;5085362;28;20100;-68
2021/07/15 10:33:27;;;;;;;8.30;7.53;;;;;;;39.88;24.28;100240.66;5085643;28;20020;-68
2021/07/15 10:35:52;;;;;;;8.50;7.70;;;;;;;39.38;25.91;100239.25;5085525;28;20469;-67
2021/07/15 10:38:20;;;;;;;8.25;7.55;;;;;;;39.60;25.95;100229.03;5085356;28;20035;-67
2021/07/15 10:40:48;;;;;;;9.90;7.78;;;;;;;40.06;25.27;100239.19;5085330;28;20016;-68
2021/07/15 10:43:14;;;;;;;7.88;7.05;;;;;;;40.31;24.94;100241.22;5085632;28;20025;-67
2021/07/15 10:45:39;;;;;;;9.38;6.93;;;;;;;40.35;24.43;100231.56;5085344;28;20028;-66
2021/07/15 10:48:06;;;;;;;7.90;7.15;;;;;;;40.18;24.66;100233.94;5085420;28;20032;-67
2021/07/15 10:50:31;;;;;;;7.88;7.18;;;;;;;40.00;25.03;100238.97;5085269;28;20528;-68
2021/07/15 10:52:58;;;;;;;8.63;7.80;;;;;;;39.99;25.24;100234.59;5085155;28;20051;-67
2021/07/15 10:55:25;;;;;;;7.80;7.20;;;;;;;39.96;25.39;100229.56;5085271;28;20032;-67
2021/07/15 10:57:51;;;;;;;7.80;7.18;;;;;;;39.96;25.15;100224.16;5083562;28;20432;-67
2021/07/15 11:00:24;;;;;;;7.72;7.13;;;;;;;39.92;24.94;100220.19;5084951;28;20027;-68
2021/07/15 11:03:12;;;;;;;8.10;7.00;;;;;;;39.47;24.62;100224.41;5084575;28;20024;-70
2021/07/15 11:05:48;;;;;;;7.82;7.13;;;;;;;38.51;26.16;100222.56;5084781;28;20032;-67
2021/07/15 11:08:15;;;;;;;8.25;7.55;;;;;;;37.69;27.42;100215.00;5084950;28;20017;-68
2021/07/15 11:10:40;;;;;;;8.05;7.28;;;;;;;36.85;28.43;100220.94;5084714;28;20022;-67
2021/07/15 11:13:06;;;;;;;8.25;7.53;;;;;;;36.19;29.57;100220.75;5083315;28;20024;-68
2021/07/15 11:15:52;;;;;;;7.80;6.80;;;;;;;35.55;30.47;100214.81;5084750;28;20043;-68
2021/07/15 11:18:40;;;;;;;8.70;7.88;;;;;;;35.07;30.87;100213.16;5084700;28;20043;-68
2021/07/15 11:21:24;;;;;;;14.07;7.80;;;;;;;34.54;31.61;100208.38;5084312;28;20582;-68